Time;durP1;ratioP1;P1;durP2;ratioP2;P2;SDS_P1;SDS_P2;PMS_P1;PMS_P2;Temp;Humidity;BMP_temperature;BMP_pressure;BME280_temperature;BME280_humidity;BME280_pressure;Samples;Min_cycle;Max_cycle;Signal;HPM_P1;HPM_P2
2024/01/26 00:00:38;;;;;;;76.22;24.55;;;8.70;99.90;;;;;;5114700;28;20040;-85
2024/01/26 00:03:05;;;;;;;75.47;26.08;;;7.10;99.90;;;;;;5114588;28;20050;-85
2024/01/26 00:05:30;;;;;;;78.22;25.33;;;7.90;99.90;;;;;;5114172;28;20118;-84
2024/01/26 00:07:56;;;;;;;65.80;25.67;;;8.10;99.90;;;;;;5115177;28;20139;-85
2024/01/26 00:10:22;;;;;;;77.68;27.33;;;8.60;99.90;;;;;;5114389;28;20054;-85
2024/01/26 00:12:47;;;;;;;74.95;24.08;;;8.10;99.90;;;;;;5113988;28;20044;-84
2024/01/26 00:15:14;;;;;;;68.38;25.27;;;8.40;99.90;;;;;;5113781;28;20078;-86
2024/01/26 00:17:40;;;;;;;75.70;25.83;;;9.50;99.90;;;;;;5096674;28;20035;-85
2024/01/26 00:20:06;;;;;;;80.15;26.20;;;9.70;99.90;;;;;;5115381;28;20088;-84
2024/01/26 00:22:32;;;;;;;71.57;25.48;;;8.20;99.90;;;;;;5114760;28;20044;-85
2024/01/26 00:24:58;;;;;;;77.13;26.55;;;8.30;99.90;;;;;;5114022;28;20488;-85
2024/01/26 00:27:23;;;;;;;80.60;25.55;;;8.30;99.90;;;;;;5115184;28;20040;-86
2024/01/26 00:29:49;;;;;;;82.00;26.85;;;9.10;99.90;;;;;;5114000;28;20392;-84
2024/01/26 00:32:15;;;;;;;81.28;27.05;;;8.40;99.90;;;;;;5113388;28;20044;-85
2024/01/26 00:34:40;;;;;;;73.22;26.42;;;8.40;99.90;;;;;;5096181;28;20500;-84
2024/01/26 00:37:06;;;;;;;84.38;28.05;;;9.40;99.90;;;;;;5130496;27;20048;-84
2024/01/26 00:39:32;;;;;;;79.28;27.65;;;8.90;99.90;;;;;;5113665;28;20181;-85
2024/01/26 00:41:57;;;;;;;84.32;29.45;;;9.10;99.90;;;;;;5113955;28;20408;-86
2024/01/26 00:44:23;;;;;;;80.65;27.30;;;9.00;99.90;;;;;;5113501;28;20457;-84
2024/01/26 00:46:49;;;;;;;73.47;25.52;;;8.40;99.90;;;;;;5096392;28;20050;-85
2024/01/26 00:49:14;;;;;;;80.90;28.50;;;8.30;99.90;;;;;;5128992;27;20043;-84
2024/01/26 00:51:40;;;;;;;79.30;29.00;;;8.50;99.90;;;;;;5113491;28;20043;-84
2024/01/26 00:54:05;;;;;;;77.15;27.67;;;8.20;99.90;;;;;;5113253;28;20040;-84
2024/01/26 00:56:31;;;;;;;73.28;28.40;;;9.40;99.90;;;;;;5113768;28;20139;-84
2024/01/26 00:58:57;;;;;;;77.93;28.60;;;7.80;99.90;;;;;;5112828;28;20472;-84
2024/01/26 01:01:24;;;;;;;79.25;28.92;;;9.00;99.90;;;;;;5112803;28;20082;-84
2024/01/26 01:03:49;;;;;;;71.93;29.52;;;9.50;99.90;;;;;;5114678;28;20080;-84
2024/01/26 01:06:16;;;;;;;74.55;26.90;;;9.10;99.90;;;;;;5113174;28;20451;-86
2024/01/26 01:08:42;;;;;;;66.93;26.27;;;9.10;99.90;;;;;;5114413;28;20131;-84
2024/01/26 01:11:07;;;;;;;70.07;29.45;;;8.60;99.90;;;;;;5113604;28;20067;-83
2024/01/26 01:13:33;;;;;;;68.22;27.30;;;8.40;99.90;;;;;;5113485;28;20051;-84
2024/01/26 01:16:00;;;;;;;71.30;27.58;;;9.00;99.90;;;;;;5114456;28;20051;-84
2024/01/26 01:18:26;;;;;;;67.25;29.58;;;8.70;99.90;;;;;;5096274;28;20484;-84
2024/01/26 01:20:52;;;;;;;63.63;27.35;;;8.80;99.90;;;;;;5114255;28;20080;-84
2024/01/26 01:23:18;;;;;;;67.13;28.13;;;8.80;99.90;;;;;;5114250;28;20040;-84
2024/01/26 01:25:44;;;;;;;57.28;25.13;;;8.70;99.90;;;;;;5112793;28;20131;-83
2024/01/26 01:28:09;;;;;;;61.08;27.42;;;9.00;99.90;;;;;;5113839;28;20063;-84
2024/01/26 01:30:35;;;;;;;65.15;27.00;;;8.80;99.90;;;;;;5112477;28;20145;-84
2024/01/26 01:33:02;;;;;;;73.93;29.38;;;9.00;99.90;;;;;;5113936;28;20083;-85
2024/01/26 01:35:27;;;;;;;72.65;29.67;;;9.30;99.90;;;;;;5112868;28;20088;-85
2024/01/26 01:37:53;;;;;;;64.82;27.13;;;9.10;99.90;;;;;;5113047;28;20046;-84
2024/01/26 01:40:19;;;;;;;64.20;26.58;;;9.40;99.90;;;;;;5113286;28;20100;-84
2024/01/26 01:42:46;;;;;;;51.22;24.20;;;8.90;99.90;;;;;;5113516;28;20051;-84
2024/01/26 01:45:13;;;;;;;57.08;24.95;;;9.80;99.90;;;;;;5113812;28;20035;-84
2024/01/26 01:47:40;;;;;;;54.00;23.75;;;8.90;99.90;;;;;;5113380;27;20093;-85
2024/01/26 01:50:07;;;;;;;49.30;21.55;;;9.20;99.90;;;;;;5113946;28;20126;-85
2024/01/26 01:52:36;;;;;;;42.55;21.90;;;8.90;99.90;;;;;;5095381;28;20096;-85
2024/01/26 01:55:03;;;;;;;41.28;19.58;;;10.30;99.90;;;;;;5112479;28;20048;-84
2024/01/26 01:57:31;;;;;;;43.90;19.10;;;9.00;99.90;;;;;;5112560;28;20047;-85
2024/01/26 01:59:57;;;;;;;37.28;19.23;;;9.00;99.90;;;;;;5114063;28;20118;-85
2024/01/26 02:02:25;;;;;;;41.00;18.63;;;9.60;99.90;;;;;;5112898;28;20126;-83
2024/01/26 02:04:51;;;;;;;39.95;19.75;;;9.40;99.90;;;;;;5112214;28;20048;-85
2024/01/26 02:07:17;;;;;;;35.20;18.33;;;10.00;99.90;;;;;;5112823;28;20039;-84
2024/01/26 02:09:42;;;;;;;36.65;19.30;;;9.50;99.90;;;;;;5112545;28;20040;-84
2024/01/26 02:12:08;;;;;;;35.35;19.52;;;9.90;99.90;;;;;;5112717;28;20131;-84
2024/01/26 02:14:34;;;;;;;34.25;18.17;;;10.20;99.90;;;;;;5113168;28;20039;-85
2024/01/26 02:17:01;;;;;;;33.42;18.77;;;9.10;99.90;;;;;;5113191;28;20040;-84
2024/01/26 02:19:29;;;;;;;29.77;16.70;;;9.70;99.90;;;;;;5095286;28;20122;-84
2024/01/26 02:21:55;;;;;;;29.33;17.85;;;9.70;99.90;;;;;;5095858;28;20039;-84
2024/01/26 02:24:21;;;;;;;31.10;18.00;;;9.20;99.90;;;;;;5095045;28;20051;-84
2024/01/26 02:26:47;;;;;;;28.17;17.88;;;9.30;99.90;;;;;;5112139;28;20040;-84
2024/01/26 02:29:13;;;;;;;32.65;19.33;;;9.50;99.90;;;;;;5112639;28;20043;-85
2024/01/26 02:31:39;;;;;;;30.73;18.40;;;9.20;99.90;;;;;;5112386;28;20357;-84
2024/01/26 02:34:06;;;;;;;31.90;19.35;;;9.80;99.90;;;;;;5113389;28;20089;-84
2024/01/26 02:36:35;;;;;;;32.03;18.10;;;9.20;99.90;;;;;;5112044;28;20119;-83
2024/01/26 02:39:01;;;;;;;29.10;18.63;;;9.50;99.90;;;;;;5112131;28;20051;-85
2024/01/26 02:41:29;;;;;;;30.90;19.05;;;9.30;99.90;;;;;;5113497;28;20114;-84
2024/01/26 02:43:55;;;;;;;28.27;18.00;;;9.20;99.90;;;;;;5113828;28;20047;-86
2024/01/26 02:46:21;;;;;;;33.33;18.33;;;10.50;99.90;;;;;;5112308;28;20054;-84
2024/01/26 02:48:46;;;;;;;28.75;19.15;;;9.30;99.90;;;;;;5111661;28;20449;-85
2024/01/26 02:51:12;;;;;;;29.10;18.35;;;9.30;99.90;;;;;;5113187;28;20058;-84
2024/01/26 02:53:39;;;;;;;27.55;18.40;;;9.50;99.90;;;;;;5112618;28;20036;-86
2024/01/26 02:56:06;;;;;;;28.10;18.02;;;9.30;99.90;;;;;;5111541;28;20046;-85
2024/01/26 02:58:31;;;;;;;27.27;18.25;;;9.40;99.90;;;;;;5113021;28;20043;-85
2024/01/26 03:00:57;;;;;;;26.30;17.95;;;9.40;99.90;;;;;;5115709;28;20092;-85
2024/01/26 03:03:23;;;;;;;28.58;18.10;;;9.40;99.90;;;;;;5115523;28;20506;-85
2024/01/26 03:05:49;;;;;;;24.13;16.20;;;10.10;99.90;;;;;;5117322;28;20426;-84
2024/01/26 03:08:15;;;;;;;26.15;17.13;;;9.40;99.90;;;;;;5116292;28;20051;-85
2024/01/26 03:10:41;;;;;;;29.13;18.30;;;9.90;99.90;;;;;;5116618;28;20488;-86
2024/01/26 03:13:06;;;;;;;25.52;15.65;;;9.40;99.90;;;;;;5115862;28;20035;-84
2024/01/26 03:15:32;;;;;;;23.67;17.05;;;9.20;99.90;;;;;;5115786;28;20545;-85
2024/01/26 03:17:58;;;;;;;26.40;17.13;;;9.40;99.90;;;;;;5116837;28;20047;-85
2024/01/26 03:20:23;;;;;;;28.88;17.10;;;9.40;99.90;;;;;;5116581;28;20040;-85
2024/01/26 03:22:49;;;;;;;26.80;17.15;;;9.40;99.90;;;;;;5116808;28;20415;-85
2024/01/26 03:25:15;;;;;;;26.58;16.30;;;10.50;99.90;;;;;;5116826;28;20445;-87
2024/01/26 03:27:40;;;;;;;28.15;17.30;;;9.50;99.90;;;;;;5116449;28;20051;-86
2024/01/26 03:30:08;;;;;;;26.73;16.52;;;10.40;99.90;;;;;;5116439;28;20067;-84
2024/01/26 03:32:34;;;;;;;25.27;15.75;;;9.40;99.90;;;;;;5115143;28;20131;-85
2024/01/26 03:35:00;;;;;;;25.73;15.63;;;9.20;99.90;;;;;;5115376;28;20126;-86
2024/01/26 03:37:25;;;;;;;29.20;16.58;;;9.20;99.90;;;;;;5097946;28;20047;-85
2024/01/26 03:39:51;;;;;;;29.15;16.95;;;9.30;99.90;;;;;;5115759;28;20039;-84
2024/01/26 03:42:17;;;;;;;27.25;15.73;;;10.80;99.90;;;;;;5116268;28;20035;-84
2024/01/26 03:44:42;;;;;;;27.80;17.15;;;10.10;99.90;;;;;;5116179;28;20067;-85
2024/01/26 03:47:10;;;;;;;26.95;16.70;;;9.50;99.90;;;;;;5116580;28;20446;-84
2024/01/26 03:49:36;;;;;;;25.42;15.75;;;11.10;99.90;;;;;;5114924;28;20048;-85
2024/01/26 03:52:04;;;;;;;28.52;16.77;;;9.50;99.90;;;;;;5114727;28;20412;-84
2024/01/26 03:54:30;;;;;;;29.67;16.60;;;9.50;99.90;;;;;;5114866;28;20480;-86
2024/01/26 03:56:55;;;;;;;32.55;16.83;;;10.60;99.90;;;;;;5115565;28;20047;-85
2024/01/26 03:59:21;;;;;;;32.00;16.33;;;10.00;99.90;;;;;;5115791;28;20537;-84
2024/01/26 04:01:47;;;;;;;30.17;16.40;;;9.50;99.90;;;;;;5114405;28;20515;-85
2024/01/26 04:04:12;;;;;;;28.75;16.63;;;9.40;99.90;;;;;;5114768;28;20043;-85
2024/01/26 04:06:42;;;;;;;31.35;15.63;;;9.60;99.90;;;;;;5114607;28;20487;-86
2024/01/26 04:09:09;;;;;;;24.73;14.95;;;10.40;99.90;;;;;;5115591;28;20047;-84
2024/01/26 04:11:34;;;;;;;28.08;15.40;;;10.20;99.90;;;;;;5096742;28;20044;-84
2024/01/26 04:14:00;;;;;;;26.50;14.73;;;9.50;99.90;;;;;;5097620;28;20050;-84
2024/01/26 04:16:26;;;;;;;28.65;15.70;;;9.60;99.90;;;;;;5114484;28;20046;-84
2024/01/26 04:18:52;;;;;;;28.00;16.63;;;9.50;99.90;;;;;;5114510;28;20048;-85
2024/01/26 04:21:17;;;;;;;31.20;16.73;;;10.10;99.90;;;;;;5114377;28;20067;-85
2024/01/26 04:23:43;;;;;;;29.17;16.27;;;9.70;99.90;;;;;;5113585;28;20050;-85
2024/01/26 04:26:09;;;;;;;25.88;15.43;;;9.60;99.90;;;;;;5114984;28;20130;-87
2024/01/26 04:28:34;;;;;;;28.13;16.35;;;8.50;99.90;;;;;;5125753;27;20044;-84
2024/01/26 04:31:00;;;;;;;27.88;15.55;;;10.30;99.90;;;;;;5114149;28;20047;-86
2024/01/26 04:33:27;;;;;;;27.58;15.68;;;10.40;99.90;;;;;;5113841;28;20051;-84
2024/01/26 04:35:53;;;;;;;29.80;17.20;;;9.60;99.90;;;;;;5115337;28;20051;-85
2024/01/26 04:38:18;;;;;;;29.88;16.88;;;9.80;99.90;;;;;;5113594;28;20035;-86
2024/01/26 04:40:44;;;;;;;26.75;15.68;;;9.70;99.90;;;;;;5115179;28;20040;-84
2024/01/26 04:43:10;;;;;;;30.30;18.15;;;9.70;99.90;;;;;;5113954;28;20047;-85
2024/01/26 04:45:35;;;;;;;31.13;17.98;;;9.70;99.90;;;;;;5113309;28;20036;-84
2024/01/26 04:48:01;;;;;;;28.05;16.55;;;10.00;99.90;;;;;;5114437;28;20039;-83
2024/01/26 04:50:27;;;;;;;28.38;17.88;;;9.70;99.90;;;;;;5117190;28;20044;-85
2024/01/26 04:52:53;;;;;;;30.30;17.33;;;9.70;99.90;;;;;;5096702;28;20114;-87
2024/01/26 04:55:23;;;;;;;31.35;16.50;;;9.80;99.90;;;;;;5113479;28;20134;-84
2024/01/26 04:57:49;;;;;;;30.35;17.58;;;9.70;99.90;;;;;;5093192;28;20480;-85
2024/01/26 05:00:16;;;;;;;29.55;16.58;;;10.40;99.90;;;;;;5110318;28;20085;-84
2024/01/26 05:02:41;;;;;;;28.40;16.17;;;9.80;99.90;;;;;;5094673;28;20044;-83
2024/01/26 05:05:07;;;;;;;33.47;15.85;;;9.80;99.90;;;;;;5098492;27;20442;-84
2024/01/26 05:07:33;;;;;;;29.38;15.88;;;9.80;99.90;;;;;;5114459;27;20072;-85
2024/01/26 05:09:58;;;;;;;29.42;16.25;;;9.90;99.90;;;;;;5114623;28;20484;-85
2024/01/26 05:12:24;;;;;;;28.67;16.20;;;9.90;99.90;;;;;;5114287;28;20047;-84
2024/01/26 05:14:50;;;;;;;25.45;16.45;;;9.90;99.90;;;;;;5112922;28;20118;-86
2024/01/26 05:17:16;;;;;;;27.08;16.15;;;10.10;99.90;;;;;;5112783;28;20037;-86
2024/01/26 05:19:41;;;;;;;28.17;15.18;;;9.90;99.90;;;;;;5130519;27;20039;-85
2024/01/26 05:22:07;;;;;;;25.42;15.75;;;10.00;99.90;;;;;;5112486;28;20036;-86
2024/01/26 05:24:32;;;;;;;23.67;15.02;;;10.70;99.90;;;;;;5114565;28;20096;-85
2024/01/26 05:26:58;;;;;;;26.08;14.82;;;10.30;99.90;;;;;;5112476;28;20038;-85
2024/01/26 05:29:25;;;;;;;23.08;14.48;;;10.00;99.90;;;;;;5112779;28;20044;-85
2024/01/26 05:31:50;;;;;;;24.23;14.27;;;10.30;99.90;;;;;;5095807;28;20051;-85
2024/01/26 05:34:16;;;;;;;28.15;14.30;;;10.10;99.90;;;;;;5113590;28;20048;-85
2024/01/26 05:36:42;;;;;;;24.98;15.45;;;10.10;99.90;;;;;;5114223;28;20040;-84
2024/01/26 05:42:49;;;;;;;25.85;13.85;;;10.50;99.90;;;;;;5114098;28;20114;-85
2024/01/26 05:45:16;;;;;;;22.63;13.88;;;10.30;99.90;;;;;;5113786;28;20464;-85
2024/01/26 05:47:41;;;;;;;21.70;13.27;;;10.70;99.90;;;;;;5112714;28;20130;-85
2024/01/26 05:50:08;;;;;;;26.23;13.45;;;10.20;99.90;;;;;;5110822;28;20129;-85
2024/01/26 05:52:33;;;;;;;19.05;12.68;;;10.20;99.90;;;;;;5113932;28;20043;-84
2024/01/26 05:54:59;;;;;;;23.75;13.35;;;10.90;99.90;;;;;;5112888;28;20035;-84
2024/01/26 05:57:24;;;;;;;17.35;11.45;;;10.30;99.90;;;;;;5113642;28;20071;-85
2024/01/26 05:59:50;;;;;;;21.90;12.45;;;10.30;99.90;;;;;;5110223;28;20043;-84
2024/01/26 06:02:16;;;;;;;19.50;12.85;;;10.30;99.90;;;;;;5112575;28;20408;-84
2024/01/26 06:04:42;;;;;;;22.05;12.80;;;10.70;99.90;;;;;;5113643;28;20096;-85
2024/01/26 06:07:07;;;;;;;18.83;12.55;;;10.30;99.90;;;;;;5129581;27;20040;-84
2024/01/26 06:09:33;;;;;;;25.73;13.82;;;10.80;99.90;;;;;;5112028;28;20050;-84
2024/01/26 06:11:59;;;;;;;18.90;13.05;;;10.50;99.90;;;;;;5116680;27;20101;-86
2024/01/26 06:14:25;;;;;;;23.77;13.95;;;10.40;99.90;;;;;;5100086;28;20035;-85
2024/01/26 06:16:51;;;;;;;23.50;14.60;;;10.20;99.90;;;;;;5095194;28;20048;-85
2024/01/26 06:19:16;;;;;;;19.67;12.35;;;10.90;99.90;;;;;;5113635;28;20036;-84
2024/01/26 06:21:42;;;;;;;21.33;13.52;;;10.50;99.90;;;;;;5113729;28;20055;-86
2024/01/26 06:24:08;;;;;;;19.10;12.82;;;10.30;99.90;;;;;;5112977;28;20089;-85
2024/01/26 06:26:34;;;;;;;20.00;13.38;;;10.80;99.90;;;;;;5110804;28;20043;-85
2024/01/26 06:28:59;;;;;;;22.10;12.98;;;10.00;99.90;;;;;;5111494;28;20044;-85
2024/01/26 06:31:26;;;;;;;19.98;12.68;;;10.40;99.90;;;;;;5112400;28;20131;-85
2024/01/26 06:33:51;;;;;;;21.95;13.50;;;10.30;99.90;;;;;;5096417;28;20051;-85
2024/01/26 06:36:17;;;;;;;16.95;12.55;;;10.30;99.90;;;;;;5117219;28;20051;-85
2024/01/26 06:38:43;;;;;;;25.98;15.18;;;10.40;99.90;;;;;;5116168;28;20084;-85
2024/01/26 06:41:08;;;;;;;25.77;14.25;;;10.80;99.90;;;;;;5116648;28;20043;-84
2024/01/26 06:43:34;;;;;;;23.77;14.00;;;10.40;99.90;;;;;;5116152;28;20036;-84
2024/01/26 06:46:00;;;;;;;21.98;14.57;;;11.00;99.90;;;;;;5115779;27;20047;-86
2024/01/26 06:48:26;;;;;;;22.05;13.77;;;10.50;99.90;;;;;;5098970;28;20078;-84
2024/01/26 06:50:54;;;;;;;17.73;12.32;;;10.50;99.90;;;;;;5117423;28;20040;-85
2024/01/26 06:53:21;;;;;;;17.20;11.88;;;10.70;99.90;;;;;;5117107;28;20544;-85
2024/01/26 06:55:47;;;;;;;18.02;11.60;;;11.00;99.90;;;;;;5115058;28;20445;-84
2024/01/26 06:58:13;;;;;;;21.42;13.20;;;10.50;99.90;;;;;;5115870;28;20126;-85
2024/01/26 07:00:39;;;;;;;15.77;11.50;;;10.60;99.90;;;;;;5115994;28;20050;-85
2024/01/26 07:03:04;;;;;;;15.63;10.93;;;11.10;99.90;;;;;;5117352;28;20110;-87
2024/01/26 07:05:30;;;;;;;17.67;11.27;;;10.50;99.90;;;;;;5117156;28;20051;-85
2024/01/26 07:07:56;;;;;;;14.70;9.65;;;11.00;99.90;;;;;;5116594;28;20047;-84
2024/01/26 07:10:23;;;;;;;16.27;10.50;;;11.00;99.90;;;;;;5098837;28;20395;-86
2024/01/26 07:12:48;;;;;;;19.67;10.57;;;10.50;99.90;;;;;;5117218;28;20043;-85
2024/01/26 07:15:14;;;;;;;14.30;9.18;;;10.60;99.90;;;;;;5117323;28;20050;-84
2024/01/26 07:17:40;;;;;;;17.55;9.82;;;10.60;99.90;;;;;;5115532;28;20392;-83
2024/01/26 07:20:06;;;;;;;13.45;9.13;;;10.60;99.90;;;;;;5115812;28;20044;-84
2024/01/26 07:22:32;;;;;;;14.18;9.10;;;10.60;99.90;;;;;;5115213;28;20096;-83
2024/01/26 07:24:57;;;;;;;13.23;8.15;;;10.60;99.90;;;;;;5116589;28;20446;-84
2024/01/26 07:27:23;;;;;;;11.73;7.90;;;10.90;99.90;;;;;;5115225;28;20054;-84
2024/01/26 07:29:49;;;;;;;12.02;8.55;;;10.60;99.90;;;;;;5114819;28;20051;-84
2024/01/26 07:32:15;;;;;;;11.45;7.03;;;10.70;99.90;;;;;;5116648;28;20052;-83
2024/01/26 07:34:40;;;;;;;12.45;7.80;;;10.70;99.90;;;;;;5114890;28;20046;-84
2024/01/26 07:37:07;;;;;;;9.85;7.28;;;11.10;99.90;;;;;;5115318;28;20043;-83
2024/01/26 07:39:33;;;;;;;13.05;7.55;;;10.80;99.90;;;;;;5115771;28;20412;-84
2024/01/26 07:41:59;;;;;;;11.45;7.43;;;10.70;99.90;;;;;;5114862;28;20527;-84
2024/01/26 07:44:25;;;;;;;9.63;7.05;;;11.00;99.90;;;;;;5114517;28;20040;-84
2024/01/26 07:46:51;;;;;;;10.90;7.95;;;10.40;99.90;;;;;;5114509;28;20054;-83
2024/01/26 07:49:16;;;;;;;10.30;7.53;;;11.40;99.90;;;;;;5114999;28;20079;-83
2024/01/26 07:51:42;;;;;;;13.18;7.30;;;10.70;99.90;;;;;;5115020;28;20067;-85
2024/01/26 07:54:08;;;;;;;10.75;7.00;;;10.70;99.90;;;;;;5114296;28;20044;-84
2024/01/26 07:56:33;;;;;;;8.68;6.55;;;11.20;99.90;;;;;;5115883;28;20120;-85
2024/01/26 07:58:59;;;;;;;10.93;7.13;;;10.40;99.90;;;;;;5116175;28;20051;-84
2024/01/26 08:01:25;;;;;;;8.85;6.22;;;10.80;99.90;;;;;;5114866;28;20075;-84
2024/01/26 08:03:50;;;;;;;12.02;6.57;;;10.60;99.90;;;;;;5115333;27;20130;-85
2024/01/26 08:06:16;;;;;;;8.00;5.95;;;10.60;99.90;;;;;;5114129;28;20040;-86
2024/01/26 08:08:42;;;;;;;10.32;5.95;;;10.70;99.90;;;;;;5114348;28;20411;-85
2024/01/26 08:11:09;;;;;;;8.52;5.15;;;10.90;99.90;;;;;;5113588;28;20070;-86
2024/01/26 08:13:34;;;;;;;10.43;7.93;;;10.60;99.90;;;;;;5113881;28;20094;-84
2024/01/26 08:16:00;;;;;;;7.68;5.05;;;11.10;99.90;;;;;;5114914;28;20035;-85
2024/01/26 08:18:26;;;;;;;7.60;4.82;;;10.60;99.90;;;;;;5114018;28;20079;-84
2024/01/26 08:20:52;;;;;;;5.78;3.83;;;10.50;99.90;;;;;;5114046;28;20039;-83
2024/01/26 08:23:18;;;;;;;5.93;3.75;;;10.60;99.90;;;;;;5114708;28;20053;-84
2024/01/26 08:25:44;;;;;;;5.60;3.45;;;10.60;99.90;;;;;;5114253;28;20044;-84
2024/01/26 08:28:10;;;;;;;4.78;3.38;;;10.50;99.90;;;;;;5113783;28;20059;-84
2024/01/26 08:30:36;;;;;;;5.85;3.40;;;10.80;99.90;;;;;;5114179;28;20048;-82
2024/01/26 08:33:02;;;;;;;4.82;3.60;;;10.60;99.90;;;;;;5115036;28;20401;-88
2024/01/26 08:35:27;;;;;;;6.75;3.78;;;10.60;99.90;;;;;;5115671;28;20054;-86
2024/01/26 08:37:53;;;;;;;6.03;3.83;;;10.60;99.90;;;;;;5115383;28;20035;-85
2024/01/26 08:40:20;;;;;;;5.75;4.15;;;10.60;99.90;;;;;;5114787;28;20083;-85
2024/01/26 08:42:46;;;;;;;6.25;3.60;;;10.50;99.90;;;;;;5113453;28;20406;-84
2024/01/26 08:45:12;;;;;;;4.18;3.47;;;11.00;99.90;;;;;;5113699;28;20039;-83
2024/01/26 08:47:38;;;;;;;6.43;3.03;;;10.50;99.90;;;;;;5113086;28;20377;-83
2024/01/26 08:50:05;;;;;;;4.50;3.00;;;10.60;99.90;;;;;;5118415;27;20032;-83
2024/01/26 08:52:31;;;;;;;9.73;3.13;;;10.50;99.90;;;;;;5097116;28;20079;-84
2024/01/26 08:54:57;;;;;;;8.65;4.00;;;10.60;99.90;;;;;;5097044;28;20394;-84
2024/01/26 08:57:23;;;;;;;9.18;4.22;;;10.50;99.90;;;;;;5113495;28;20167;-84
2024/01/26 08:59:48;;;;;;;11.70;4.88;;;10.30;99.90;;;;;;5113421;28;20043;-84
2024/01/26 09:02:14;;;;;;;9.27;4.68;;;10.90;99.90;;;;;;5114593;28;20036;-84
2024/01/26 09:04:39;;;;;;;14.68;4.63;;;10.50;99.90;;;;;;5114925;27;20043;-83
2024/01/26 09:07:05;;;;;;;13.98;3.97;;;10.70;99.90;;;;;;5114894;28;20039;-84
2024/01/26 09:09:31;;;;;;;17.58;4.53;;;10.50;99.90;;;;;;5114502;28;20039;-84
2024/01/26 09:11:56;;;;;;;15.32;4.35;;;10.40;99.90;;;;;;5114647;28;20408;-86
2024/01/26 09:14:22;;;;;;;15.40;3.92;;;10.80;99.90;;;;;;5112917;28;20118;-86
2024/01/26 09:16:54;;;;;;;8.27;1.05;;;10.90;99.90;;;;;;5113249;28;20051;-85
2024/01/26 09:19:19;;;;;;;3.05;0.77;;;10.30;99.90;;;;;;5113705;28;20039;-83
2024/01/26 09:21:46;;;;;;;5.22;0.93;;;10.00;99.90;;;;;;5096015;28;20510;-87
2024/01/26 09:24:12;;;;;;;5.43;0.88;;;9.60;99.90;;;;;;5113393;28;20051;-84
2024/01/26 09:26:39;;;;;;;6.28;0.52;;;9.70;99.90;;;;;;5112515;28;20119;-83
2024/01/26 09:29:08;;;;;;;5.15;0.70;;;9.50;99.90;;;;;;5113054;28;20551;-86
2024/01/26 09:31:33;;;;;;;9.32;0.90;;;9.20;99.90;;;;;;5113268;28;20094;-83
2024/01/26 09:33:59;;;;;;;4.60;0.77;;;9.30;99.90;;;;;;5113037;28;20083;-85
2024/01/26 09:36:25;;;;;;;6.22;1.02;;;9.80;99.90;;;;;;5095747;28;20048;-85
2024/01/26 09:38:51;;;;;;;9.20;1.27;;;9.30;99.90;;;;;;5114180;28;20047;-83
2024/01/26 09:41:17;;;;;;;7.10;0.88;;;9.20;99.90;;;;;;5113913;28;20043;-85
2024/01/26 09:43:43;;;;;;;14.82;1.40;;;9.20;99.90;;;;;;5112434;28;20086;-83
2024/01/26 09:46:09;;;;;;;14.05;1.40;;;9.90;99.90;;;;;;5114008;28;20411;-84
2024/01/26 09:48:36;;;;;;;14.90;1.58;;;9.10;99.90;;;;;;5113660;28;20052;-84
2024/01/26 09:51:01;;;;;;;11.18;0.98;;;9.10;99.90;;;;;;5112657;28;20050;-82
2024/01/26 09:53:31;;;;;;;15.05;1.33;;;9.00;99.90;;;;;;5112963;28;20399;-85
2024/01/26 09:55:59;;;;;;;17.58;1.55;;;9.20;99.90;;;;;;5112032;28;20506;-82
2024/01/26 09:58:25;;;;;;;15.68;1.80;;;10.20;99.90;;;;;;5112686;28;20043;-84
2024/01/26 10:00:54;;;;;;;18.08;2.45;;;9.00;99.90;;;;;;5112432;28;20085;-84
2024/01/26 10:03:24;;;;;;;18.55;1.88;;;9.50;99.90;;;;;;5113602;28;20051;-85
2024/01/26 10:05:50;;;;;;;20.38;2.33;;;8.70;99.90;;;;;;5112604;28;20051;-84
2024/01/26 10:08:16;;;;;;;15.77;2.30;;;8.80;99.90;;;;;;5111745;28;20043;-84
2024/01/26 10:10:42;;;;;;;20.55;2.42;;;8.80;99.90;;;;;;5112279;28;20040;-86
2024/01/26 10:13:08;;;;;;;13.55;1.80;;;8.70;99.90;;;;;;5112242;28;20473;-84
2024/01/26 10:15:34;;;;;;;19.83;2.33;;;8.70;99.90;;;;;;5113115;28;20055;-84
2024/01/26 10:18:00;;;;;;;22.73;2.65;;;8.70;99.90;;;;;;5112615;28;20075;-83
2024/01/26 10:20:26;;;;;;;19.08;2.65;;;9.70;99.90;;;;;;5112668;28;20392;-85
2024/01/26 10:22:52;;;;;;;23.10;3.13;;;8.60;99.90;;;;;;5113800;28;20035;-83
2024/01/26 10:25:18;;;;;;;17.48;2.53;;;9.60;99.90;;;;;;5112792;28;20048;-83
2024/01/26 10:27:44;;;;;;;18.60;2.58;;;9.50;99.90;;;;;;5112110;28;20078;-83
2024/01/26 10:30:11;;;;;;;14.57;2.85;;;8.90;99.90;;;;;;5113367;28;20039;-84
2024/01/26 10:32:37;;;;;;;21.08;3.15;;;8.60;99.90;;;;;;5112776;28;20048;-84
2024/01/26 10:35:05;;;;;;;21.67;2.88;;;9.00;99.90;;;;;;5112548;28;20055;-83
2024/01/26 10:37:32;;;;;;;20.70;2.28;;;8.50;99.90;;;;;;5112592;28;20510;-82
2024/01/26 10:39:59;;;;;;;24.15;2.88;;;8.80;99.90;;;;;;5113522;28;20089;-83
2024/01/26 10:42:26;;;;;;;21.00;2.70;;;8.70;99.90;;;;;;5112538;28;20431;-84
2024/01/26 10:44:53;;;;;;;15.30;2.08;;;8.50;99.90;;;;;;5113300;28;20050;-84
2024/01/26 10:47:19;;;;;;;16.90;2.53;;;9.20;99.90;;;;;;5112466;28;20043;-83
2024/01/26 10:49:49;;;;;;;25.42;2.72;;;8.70;99.90;;;;;;5113260;28;20487;-83
2024/01/26 10:52:19;;;;;;;20.92;2.33;;;8.40;99.90;;;;;;5112363;28;20142;-83
2024/01/26 10:54:46;;;;;;;20.98;3.30;;;8.40;99.90;;;;;;5112414;28;20043;-83
2024/01/26 10:57:13;;;;;;;23.30;2.92;;;8.50;99.90;;;;;;5112604;28;20476;-84
2024/01/26 10:59:40;;;;;;;19.00;2.80;;;9.30;99.90;;;;;;5112196;28;20070;-84
2024/01/26 11:02:10;;;;;;;22.60;2.50;;;8.80;99.90;;;;;;5112656;28;20070;-82
2024/01/26 11:04:39;;;;;;;22.52;2.30;;;9.10;99.90;;;;;;5114786;28;20047;-83
2024/01/26 11:07:05;;;;;;;19.98;2.40;;;8.30;99.90;;;;;;5112764;28;20551;-85
2024/01/26 11:09:34;;;;;;;26.08;3.97;;;8.50;99.90;;;;;;5111670;28;20134;-83
2024/01/26 11:12:01;;;;;;;19.75;3.55;;;8.50;99.90;;;;;;5113172;28;20086;-83
2024/01/26 11:14:27;;;;;;;16.67;2.17;;;8.80;99.90;;;;;;5111301;28;20044;-85
2024/01/26 11:17:07;;;;;;;19.67;3.13;;;8.60;99.90;;;;;;5094893;28;20131;-83
2024/01/26 11:19:32;;;;;;;21.23;2.70;;;9.00;99.90;;;;;;5111973;28;20055;-83
2024/01/26 11:22:02;;;;;;;21.50;2.75;;;8.70;99.90;;;;;;5115040;28;20089;-84
2024/01/26 11:24:32;;;;;;;29.08;3.25;;;9.20;99.90;;;;;;5115504;28;20108;-84
2024/01/26 11:27:01;;;;;;;22.38;2.28;;;8.70;99.90;;;;;;5116496;28;20047;-83
2024/01/26 11:29:37;;;;;;;19.60;2.40;;;9.10;99.90;;;;;;5114622;28;20048;-83
2024/01/26 11:32:19;;;;;;;18.40;2.90;;;8.50;99.90;;;;;;5098339;28;20047;-84
2024/01/26 11:34:58;;;;;;;22.70;4.15;;;9.40;99.90;;;;;;5115084;28;20051;-84
2024/01/26 11:37:27;;;;;;;14.50;2.47;;;8.50;99.90;;;;;;5101948;28;20042;-84
2024/01/26 11:39:54;;;;;;;25.73;2.65;;;8.30;99.90;;;;;;5118658;27;20059;-84
2024/01/26 11:42:20;;;;;;;22.38;3.60;;;8.50;99.90;;;;;;5095912;28;20039;-82
2024/01/26 11:45:12;;;;;;;27.30;4.70;;;8.60;99.90;;;;;;5096022;28;20051;-83
2024/01/26 11:47:42;;;;;;;31.70;3.03;;;8.80;99.90;;;;;;5103871;28;20047;-83
2024/01/26 11:50:09;;;;;;;23.70;2.65;;;8.60;99.90;;;;;;5103786;28;20035;-84
2024/01/26 11:52:35;;;;;;;18.42;2.33;;;8.90;99.90;;;;;;5115785;28;20044;-84
2024/01/26 11:55:02;;;;;;;26.48;2.85;;;8.60;99.90;;;;;;5114248;28;20031;-84
2024/01/26 11:57:30;;;;;;;20.85;3.08;;;8.60;99.90;;;;;;5097508;28;20581;-85
2024/01/26 11:59:58;;;;;;;19.35;3.05;;;8.80;99.90;;;;;;5114905;28;20122;-85
2024/01/26 12:02:24;;;;;;;20.92;3.17;;;9.40;99.90;;;;;;5115925;28;20101;-85
2024/01/26 12:04:49;;;;;;;28.30;3.63;;;8.50;99.90;;;;;;5116187;28;20035;-84
2024/01/26 12:07:15;;;;;;;23.83;3.03;;;8.50;99.90;;;;;;5115089;28;20096;-86
2024/01/26 12:09:41;;;;;;;15.00;2.55;;;8.60;99.90;;;;;;5115424;28;20430;-85
2024/01/26 12:12:08;;;;;;;21.00;3.13;;;9.10;99.90;;;;;;5116354;27;20044;-85
2024/01/26 12:14:35;;;;;;;21.38;2.45;;;8.40;99.90;;;;;;5115971;28;20095;-84
2024/01/26 12:17:01;;;;;;;18.13;2.67;;;8.30;99.90;;;;;;5128844;27;20100;-84
2024/01/26 12:19:27;;;;;;;27.63;3.60;;;8.30;99.90;;;;;;5097119;28;20039;-84
2024/01/26 12:21:53;;;;;;;23.73;3.40;;;8.30;99.90;;;;;;5114304;28;20046;-84
2024/01/26 12:24:18;;;;;;;23.70;3.50;;;8.90;99.90;;;;;;5114462;28;20051;-85
2024/01/26 12:26:45;;;;;;;25.52;3.38;;;8.00;99.90;;;;;;5115377;28;20164;-86
2024/01/26 12:29:10;;;;;;;25.80;3.47;;;8.00;99.90;;;;;;5096953;28;20051;-84
2024/01/26 12:31:37;;;;;;;18.90;2.97;;;8.40;99.90;;;;;;5113368;28;20104;-85
2024/01/26 12:34:02;;;;;;;28.58;3.47;;;8.40;99.90;;;;;;5115228;28;20060;-85
2024/01/26 12:36:32;;;;;;;29.83;4.70;;;9.30;99.90;;;;;;5096867;28;20042;-86